createdAt,value
2022-11-12T00:01:10.535Z,55.45
2022-11-12T00:03:38.288Z,55.65
2022-11-12T00:06:06.089Z,55.52
2022-11-12T00:08:33.845Z,55.54
2022-11-12T00:11:01.594Z,55.89
2022-11-12T00:13:29.557Z,55.50
2022-11-12T00:15:57.849Z,56.21
2022-11-12T00:18:27.458Z,56.38
2022-11-12T00:20:55.403Z,56.02
2022-11-12T00:23:23.235Z,56.04
2022-11-12T00:25:59.348Z,56.31
2022-11-12T00:28:27.399Z,56.09
2022-11-12T00:30:55.568Z,56.06
2022-11-12T00:33:23.365Z,56.34
2022-11-12T00:35:52.635Z,56.22
2022-11-12T00:38:20.408Z,55.79
2022-11-12T00:40:48.104Z,55.65
2022-11-12T00:43:15.831Z,56.27
2022-11-12T00:45:44.112Z,55.93
2022-11-12T00:48:11.871Z,56.37
2022-11-12T00:50:39.669Z,56.12
2022-11-12T00:53:08.796Z,56.57
2022-11-12T00:55:36.466Z,56.09
2022-11-12T00:58:04.255Z,55.76
2022-11-12T01:00:32.099Z,56.04
2022-11-12T01:02:59.915Z,56.35
2022-11-12T01:05:27.752Z,55.96
2022-11-12T01:07:56.353Z,56.48
2022-11-12T01:10:25.539Z,56.33
2022-11-12T01:12:53.301Z,56.68
2022-11-12T01:15:21.208Z,55.67
2022-11-12T01:17:49.091Z,56.27
2022-11-12T01:20:17.463Z,55.86
2022-11-12T01:22:45.284Z,56.73
2022-11-12T01:25:13.179Z,56.04
2022-11-12T01:27:42.447Z,56.32
2022-11-12T01:30:11.635Z,56.43
2022-11-12T01:32:39.349Z,55.73
2022-11-12T01:35:07.801Z,56.09
2022-11-12T01:37:35.628Z,55.87
2022-11-12T01:40:03.487Z,55.86
2022-11-12T01:42:31.496Z,56.04
2022-11-12T01:45:00.664Z,56.32
2022-11-12T01:47:29.070Z,55.91
2022-11-12T01:49:57.961Z,56.33
2022-11-12T01:52:27.484Z,56.06
2022-11-12T01:54:56.301Z,56.11
2022-11-12T01:57:29.494Z,56.12
2022-11-12T02:00:04.402Z,56.21
2022-11-12T02:02:32.337Z,55.61
2022-11-12T02:05:01.380Z,55.78
2022-11-12T02:07:29.146Z,56.07
2022-11-12T02:09:57.647Z,56.37
2022-11-12T02:12:42.994Z,55.89
2022-11-12T02:15:12.422Z,56.00
2022-11-12T02:17:40.352Z,56.45
2022-11-12T02:20:10.924Z,56.35
2022-11-12T02:22:40.138Z,56.64
2022-11-12T02:25:09.679Z,56.50
2022-11-12T02:27:37.450Z,56.23
2022-11-12T02:30:06.009Z,56.25
2022-11-12T02:32:33.732Z,56.54
2022-11-12T02:35:01.599Z,56.07
2022-11-12T02:37:29.320Z,56.41
2022-11-12T02:39:58.416Z,55.71
2022-11-12T02:42:26.158Z,56.19
2022-11-12T02:44:53.871Z,56.55
2022-11-12T02:47:22.040Z,56.43
2022-11-12T02:49:49.776Z,56.57
2022-11-12T02:52:17.595Z,56.21
2022-11-12T02:54:45.363Z,56.75
2022-11-12T02:57:14.519Z,55.90
2022-11-12T02:59:42.260Z,56.83
2022-11-12T03:02:09.909Z,56.13
2022-11-12T03:04:37.682Z,56.92
2022-11-12T03:07:05.514Z,56.89
2022-11-12T03:09:33.300Z,57.20
2022-11-12T03:12:01.115Z,56.73
2022-11-12T03:14:30.213Z,56.74
2022-11-12T03:16:58.012Z,56.41
2022-11-12T03:19:25.826Z,56.52
2022-11-12T03:21:53.575Z,56.37
2022-11-12T03:24:21.654Z,56.38
2022-11-12T03:26:49.444Z,56.34
2022-11-12T03:29:17.495Z,56.69
2022-11-12T03:31:46.723Z,56.91
2022-11-12T03:34:14.661Z,56.53
2022-11-12T03:36:42.526Z,56.86
2022-11-12T03:42:25.658Z,56.46
2022-11-12T03:44:53.410Z,56.53
2022-11-12T03:47:22.765Z,56.68
2022-11-12T03:49:50.505Z,56.73
2022-11-12T03:52:18.267Z,56.66
2022-11-12T03:54:46.120Z,56.76
2022-11-12T03:57:13.964Z,57.55
2022-11-12T03:59:41.865Z,56.97
2022-11-12T04:02:14.587Z,56.59
2022-11-12T04:05:01.400Z,57.25
2022-11-12T04:07:46.656Z,56.92
2022-11-12T04:10:46.656Z,56.92
2022-11-12T04:13:29.463Z,57.19
2022-11-12T04:16:19.428Z,57.63
2022-11-12T04:19:05.279Z,57.14
2022-11-12T04:21:57.213Z,57.09
2022-11-12T04:24:44.133Z,56.61
2022-11-12T04:28:12.384Z,56.43
2022-11-12T04:30:40.092Z,56.98
2022-11-12T04:33:07.826Z,56.92
2022-11-12T04:35:35.614Z,57.51
2022-11-12T04:38:04.925Z,57.50
2022-11-12T04:40:50.144Z,56.49
2022-11-12T04:43:36.034Z,57.00
2022-11-12T04:46:04.200Z,56.80
2022-11-12T04:48:32.041Z,57.31
2022-11-12T04:51:00.436Z,56.91
2022-11-12T04:53:29.652Z,57.06
2022-11-12T04:55:58.275Z,57.63
2022-11-12T04:58:26.591Z,57.04
2022-11-12T05:00:54.621Z,57.07
2022-11-12T05:03:22.393Z,57.24
2022-11-12T05:05:50.294Z,57.31
2022-11-12T05:08:18.242Z,56.46
2022-11-12T05:10:47.395Z,56.78
2022-11-12T05:13:15.240Z,57.09
2022-11-12T05:15:44.772Z,57.35
2022-11-12T05:18:12.586Z,56.58
2022-11-12T05:20:40.385Z,57.23
2022-11-12T05:23:08.312Z,56.88
2022-11-12T05:25:36.442Z,57.33
2022-11-12T05:28:07.218Z,56.63
2022-11-12T05:30:35.977Z,56.57
2022-11-12T05:33:03.973Z,56.86
2022-11-12T05:35:32.162Z,56.67
2022-11-12T05:38:00.116Z,57.21
2022-11-12T05:40:28.155Z,57.06
2022-11-12T05:42:56.157Z,56.97
2022-11-12T05:45:25.685Z,57.17
2022-11-12T05:47:53.640Z,56.56
2022-11-12T05:50:21.547Z,57.03
2022-11-12T05:52:49.490Z,57.03
2022-11-12T05:55:20.641Z,57.12
2022-11-12T05:57:48.675Z,56.77
2022-11-12T06:00:17.770Z,56.98
2022-11-12T06:02:47.199Z,57.19
2022-11-12T06:05:15.134Z,57.20
2022-11-12T06:07:42.951Z,57.45
2022-11-12T06:10:13.689Z,56.95
2022-11-12T06:12:44.072Z,56.82
2022-11-12T06:15:12.227Z,56.93
2022-11-12T06:17:40.083Z,57.18
2022-11-12T06:20:13.545Z,57.23
2022-11-12T06:22:41.554Z,57.22
2022-11-12T06:25:12.187Z,57.10
2022-11-12T06:27:40.124Z,56.99
2022-11-12T06:30:08.865Z,57.74
2022-11-12T06:32:37.906Z,57.38
2022-11-12T06:35:06.295Z,57.18
2022-11-12T06:37:35.522Z,56.40
2022-11-12T06:40:13.296Z,57.36
2022-11-12T06:42:41.294Z,57.11
2022-11-12T06:45:09.904Z,56.92
2022-11-12T06:47:37.858Z,57.05
2022-11-12T06:50:06.368Z,57.22
2022-11-12T06:52:35.672Z,57.43
2022-11-12T06:55:08.298Z,56.80
2022-11-12T06:57:36.648Z,56.97
2022-11-12T07:00:05.050Z,57.78
2022-11-12T07:02:32.984Z,57.22
2022-11-12T07:05:00.777Z,57.36
2022-11-12T07:07:29.732Z,57.04
2022-11-12T07:09:59.313Z,57.03
2022-11-12T07:12:27.097Z,56.67
2022-11-12T07:14:56.251Z,56.97
2022-11-12T07:17:24.065Z,56.92
2022-11-12T07:19:51.861Z,57.10
2022-11-12T07:22:19.629Z,56.27
2022-11-12T07:24:47.452Z,56.71
2022-11-12T07:27:16.631Z,56.25
2022-11-12T07:29:48.950Z,56.62
2022-11-12T07:32:17.262Z,56.22
2022-11-12T07:34:45.036Z,56.35
2022-11-12T07:37:12.917Z,56.91
2022-11-12T07:39:40.886Z,55.48
2022-11-12T07:42:08.751Z,54.46
2022-11-12T07:44:38.032Z,52.52
2022-11-12T07:47:05.841Z,50.73
2022-11-12T07:49:33.757Z,48.38
2022-11-12T07:52:01.686Z,47.45
2022-11-12T07:54:29.651Z,45.83
2022-11-12T07:56:57.618Z,44.20
2022-11-12T07:59:25.854Z,41.68
2022-11-12T08:01:55.223Z,40.44
2022-11-12T08:04:23.090Z,38.91
2022-11-12T08:06:51.172Z,38.07
2022-11-12T08:09:19.382Z,36.90
2022-11-12T08:11:47.354Z,35.80
2022-11-12T08:14:15.442Z,35.60
2022-11-12T08:16:43.379Z,34.48
2022-11-12T08:19:12.717Z,33.65
2022-11-12T08:21:40.540Z,33.11
2022-11-12T08:24:09.173Z,32.20
2022-11-12T08:26:37.154Z,31.32
2022-11-12T08:29:08.699Z,30.04
2022-11-12T08:31:36.905Z,29.59
2022-11-12T08:34:12.614Z,28.77
2022-11-12T08:36:43.162Z,28.51
2022-11-12T08:39:11.376Z,28.64
2022-11-12T08:41:40.465Z,28.10
2022-11-12T08:44:09.082Z,27.37
2022-11-12T08:46:37.495Z,26.87
2022-11-12T08:49:06.101Z,26.74
2022-11-12T08:51:36.139Z,25.84
2022-11-12T08:54:05.784Z,25.00
2022-11-12T08:56:34.148Z,24.75
2022-11-12T08:59:06.328Z,24.11
2022-11-12T09:01:35.572Z,23.13
2022-11-12T09:04:03.820Z,23.44
2022-11-12T09:06:31.826Z,22.82
2022-11-12T09:08:59.767Z,22.41
2022-11-12T09:11:30.015Z,22.21
2022-11-12T09:13:58.486Z,22.64
2022-11-12T09:16:26.959Z,22.57
2022-11-12T09:18:55.047Z,22.02
2022-11-12T09:21:26.369Z,21.25
2022-11-12T09:23:55.982Z,21.25
2022-11-12T09:26:23.891Z,20.48
2022-11-12T09:28:56.113Z,19.82
2022-11-12T09:31:29.013Z,19.87
2022-11-12T09:33:56.856Z,19.86
2022-11-12T09:36:24.733Z,20.19
2022-11-12T09:38:52.590Z,19.35
2022-11-12T09:41:29.054Z,19.02
2022-11-12T09:43:59.895Z,19.20
2022-11-12T09:46:35.669Z,18.93
2022-11-12T09:49:08.030Z,18.89
2022-11-12T09:51:37.590Z,18.14
2022-11-12T09:54:08.060Z,17.55
2022-11-12T09:56:35.830Z,17.83
2022-11-12T09:59:05.279Z,17.53
2022-11-12T10:01:40.117Z,16.84
2022-11-12T10:04:17.708Z,16.59
2022-11-12T10:06:47.357Z,16.62
2022-11-12T10:09:16.552Z,15.88
2022-11-12T10:12:12.055Z,15.92
2022-11-12T10:14:58.902Z,14.95
2022-11-12T10:17:29.949Z,14.78
2022-11-12T10:20:07.604Z,13.96
2022-11-12T10:22:43.149Z,14.31
2022-11-12T10:25:14.743Z,15.01
2022-11-12T10:27:43.187Z,14.55
2022-11-12T10:30:17.490Z,14.94
2022-11-12T10:32:45.881Z,14.67
2022-11-12T10:35:15.969Z,13.66
2022-11-12T10:37:47.670Z,12.83
2022-11-12T10:40:28.576Z,13.84
2022-11-12T10:43:00.169Z,13.66
2022-11-12T10:45:29.875Z,13.33
2022-11-12T10:47:57.707Z,13.58
2022-11-12T10:50:27.129Z,13.03
2022-11-12T10:52:57.563Z,12.35
2022-11-12T10:55:26.409Z,12.24
2022-11-12T10:58:08.418Z,12.10
2022-11-12T11:00:37.724Z,12.61
2022-11-12T11:03:08.328Z,12.14
2022-11-12T11:05:37.122Z,12.46
2022-11-12T11:08:05.671Z,12.30
2022-11-12T11:10:37.545Z,13.14
2022-11-12T11:13:27.757Z,12.82
2022-11-12T11:16:01.502Z,12.41
2022-11-12T11:18:29.839Z,12.26
2022-11-12T11:21:05.997Z,12.63
2022-11-12T11:23:38.658Z,12.36
2022-11-12T11:26:15.554Z,12.72
2022-11-12T11:28:47.295Z,13.09
2022-11-12T11:31:20.625Z,12.88
2022-11-12T11:33:49.660Z,13.36
2022-11-12T11:36:23.010Z,12.57
2022-11-12T11:38:56.920Z,12.87
2022-11-12T11:41:38.130Z,12.88
2022-11-12T11:44:13.737Z,13.68
2022-11-12T11:46:50.822Z,13.64
2022-11-12T11:49:47.170Z,13.25
2022-11-12T11:52:25.600Z,12.87
2022-11-12T11:55:01.092Z,12.63
2022-11-12T11:57:30.229Z,12.51
2022-11-12T12:00:25.427Z,12.11
2022-11-12T12:03:20.984Z,12.48
2022-11-12T12:05:56.506Z,11.53
2022-11-12T12:08:27.598Z,12.14
2022-11-12T12:11:09.114Z,11.56
2022-11-12T12:13:43.823Z,11.97
2022-11-12T12:16:21.045Z,12.29
2022-11-12T12:18:56.138Z,12.44
2022-11-12T12:21:26.062Z,12.90
2022-11-12T12:23:54.765Z,13.29
2022-11-12T12:26:24.822Z,13.82
2022-11-12T12:28:54.377Z,14.38
2022-11-12T12:31:23.877Z,15.03
2022-11-12T12:33:54.341Z,15.87
2022-11-12T12:36:24.686Z,16.93
2022-11-12T12:41:45.299Z,18.74
2022-11-12T12:44:16.146Z,18.84
2022-11-12T12:47:06.473Z,19.34
2022-11-12T12:49:38.702Z,19.62
2022-11-12T12:52:07.334Z,20.33
2022-11-12T12:55:16.293Z,20.55
2022-11-12T12:57:44.988Z,21.30
2022-11-12T13:00:31.641Z,21.62
2022-11-12T13:03:00.138Z,21.78
2022-11-12T13:05:31.536Z,21.72
2022-11-12T13:08:02.655Z,22.38
2022-11-12T13:10:56.241Z,22.22
2022-11-12T13:13:35.175Z,22.48
2022-11-12T13:16:05.802Z,22.49
2022-11-12T13:19:08.673Z,22.31
2022-11-12T13:21:47.878Z,22.67
2022-11-12T13:24:18.079Z,22.75
2022-11-12T13:26:58.176Z,22.68
2022-11-12T13:29:42.676Z,23.25
2022-11-12T13:32:41.846Z,23.12
2022-11-12T13:35:28.637Z,23.17
2022-11-12T13:38:00.413Z,23.11
2022-11-12T13:40:40.160Z,23.11
2022-11-12T13:43:24.279Z,22.95
2022-11-12T13:45:54.142Z,23.12
2022-11-12T13:48:25.036Z,23.12
2022-11-12T13:50:58.197Z,23.22
2022-11-12T13:53:30.197Z,23.41
2022-11-12T13:55:58.475Z,23.61
2022-11-12T13:58:30.788Z,23.92
2022-11-12T14:00:59.589Z,23.67
2022-11-12T14:03:29.770Z,24.02
2022-11-12T14:05:57.925Z,24.22
2022-11-12T14:08:58.964Z,24.21
2022-11-12T14:11:42.461Z,24.07
2022-11-12T14:14:16.413Z,24.39
2022-11-12T14:16:58.285Z,24.37
2022-11-12T14:19:34.115Z,24.31
2022-11-12T14:22:03.080Z,24.43
2022-11-12T14:24:33.374Z,24.65
2022-11-12T14:27:01.241Z,25.06
2022-11-12T14:29:34.628Z,25.32
2022-11-12T14:32:03.970Z,25.67
2022-11-12T14:34:33.521Z,26.65
2022-11-12T14:37:01.826Z,26.42
2022-11-12T14:39:30.036Z,26.89
2022-11-12T14:41:59.584Z,26.98
2022-11-12T14:44:38.333Z,27.44
2022-11-12T14:47:06.407Z,27.29
2022-11-12T14:49:39.356Z,27.24
2022-11-12T14:52:12.010Z,26.93
2022-11-12T14:54:44.003Z,26.66
2022-11-12T14:57:13.681Z,26.76
2022-11-12T14:59:41.438Z,26.75
2022-11-12T15:05:02.328Z,27.21
2022-11-12T15:07:31.325Z,27.62
2022-11-12T15:09:59.408Z,27.45
2022-11-12T15:12:30.757Z,28.31
2022-11-12T15:15:10.928Z,27.42
2022-11-12T15:17:38.574Z,27.19
2022-11-12T15:20:07.583Z,26.92
2022-11-12T15:22:36.081Z,27.70
2022-11-12T15:25:21.041Z,27.09
2022-11-12T15:28:00.865Z,27.09
2022-11-12T15:30:42.765Z,27.43
2022-11-12T15:33:19.138Z,26.81
2022-11-12T15:35:47.150Z,26.91
2022-11-12T15:38:16.355Z,27.13
2022-11-12T15:40:45.722Z,26.73
2022-11-12T15:43:18.315Z,26.97
2022-11-12T15:45:49.645Z,26.81
2022-11-12T15:48:21.997Z,27.18
2022-11-12T15:51:10.465Z,27.14
2022-11-12T15:53:38.573Z,27.43
2022-11-12T15:56:07.101Z,27.17
2022-11-12T15:58:40.486Z,26.84
2022-11-12T16:01:08.564Z,26.42
2022-11-12T16:06:18.685Z,26.67
2022-11-12T16:08:46.881Z,26.65
2022-11-12T16:11:28.794Z,26.75
2022-11-12T16:14:02.896Z,26.55
2022-11-12T16:16:30.976Z,26.60
2022-11-12T16:18:58.738Z,26.55
2022-11-12T16:21:27.575Z,27.11
2022-11-12T16:23:55.514Z,27.05
2022-11-12T16:26:27.294Z,27.63
2022-11-12T16:28:55.243Z,28.83
2022-11-12T16:31:26.506Z,29.27
2022-11-12T16:33:54.488Z,29.65
2022-11-12T16:36:23.344Z,30.42
2022-11-12T16:38:51.250Z,30.52
2022-11-12T16:41:18.881Z,30.89
2022-11-12T16:43:46.775Z,31.09
2022-11-12T16:46:17.012Z,31.41
2022-11-12T16:48:46.171Z,30.50
2022-11-12T16:51:20.173Z,31.60
2022-11-12T16:53:50.060Z,31.65
2022-11-12T16:56:18.905Z,32.01
2022-11-12T16:58:48.269Z,32.77
2022-11-12T17:01:18.870Z,32.85
2022-11-12T17:03:48.182Z,33.54
2022-11-12T17:06:16.416Z,33.59
2022-11-12T17:08:45.016Z,34.43
2022-11-12T17:11:13.075Z,34.33
2022-11-12T17:13:41.141Z,34.57
2022-11-12T17:16:09.116Z,34.79
2022-11-12T17:18:37.299Z,35.03
2022-11-12T17:21:19.503Z,35.08
2022-11-12T17:23:47.320Z,35.76
2022-11-12T17:26:20.292Z,35.92
2022-11-12T17:28:48.512Z,35.96
2022-11-12T17:31:18.321Z,36.14
2022-11-12T17:33:47.086Z,36.19
2022-11-12T17:36:17.073Z,36.02
2022-11-12T17:38:44.788Z,36.59
2022-11-12T17:41:12.674Z,36.88
2022-11-12T17:43:40.756Z,36.84
2022-11-12T17:46:10.266Z,36.49
2022-11-12T17:48:38.440Z,37.15
2022-11-12T17:51:11.064Z,37.45
2022-11-12T17:53:40.272Z,37.67
2022-11-12T17:56:08.751Z,37.84
2022-11-12T17:58:36.785Z,37.90
2022-11-12T18:01:06.318Z,38.05
2022-11-12T18:03:34.219Z,37.97
2022-11-12T18:06:02.699Z,38.41
2022-11-12T18:08:30.482Z,38.40
2022-11-12T18:10:59.756Z,38.37
2022-11-12T18:13:27.870Z,38.82
2022-11-12T18:15:55.878Z,39.18
2022-11-12T18:18:23.588Z,39.28
2022-11-12T18:20:51.647Z,39.24
2022-11-12T18:23:19.313Z,39.39
2022-11-12T18:25:47.263Z,39.77
2022-11-12T18:28:16.372Z,39.99
2022-11-12T18:30:44.254Z,40.16
2022-11-12T18:33:11.968Z,40.09
2022-11-12T18:35:40.257Z,40.72
2022-11-12T18:38:07.958Z,40.79
2022-11-12T18:40:35.707Z,41.10
2022-11-12T18:43:03.442Z,41.27
2022-11-12T18:45:32.723Z,41.04
2022-11-12T18:48:00.432Z,41.41
2022-11-12T18:50:28.180Z,41.59
2022-11-12T18:52:55.947Z,41.81
2022-11-12T18:55:23.642Z,41.75
2022-11-12T18:57:51.355Z,42.32
2022-11-12T19:00:19.331Z,42.38
2022-11-12T19:02:48.679Z,42.75
2022-11-12T19:05:16.939Z,42.77
2022-11-12T19:15:00.704Z,43.33
2022-11-12T19:18:50.568Z,43.27
2022-11-12T19:25:23.157Z,43.25
2022-11-12T19:28:34.467Z,43.41
2022-11-12T19:31:15.388Z,43.68
2022-11-12T19:34:49.528Z,43.39
2022-11-12T19:37:36.480Z,43.53
2022-11-12T20:03:19.697Z,44.64
2022-11-12T20:06:42.497Z,44.71
2022-11-12T20:10:34.055Z,44.94
2022-11-12T20:14:38.794Z,44.95
2022-11-12T20:25:06.552Z,45.13
2022-11-12T21:17:00.683Z,46.56
2022-11-12T22:38:08.077Z,47.11
2022-11-12T22:40:35.869Z,46.85
2022-11-12T22:43:03.631Z,46.64
2022-11-12T22:45:31.515Z,46.97
2022-11-12T22:47:59.950Z,46.86
2022-11-12T22:50:27.724Z,46.69
2022-11-12T22:52:56.147Z,47.13
2022-11-12T22:55:25.240Z,47.28
2022-11-12T22:57:53.079Z,47.15
2022-11-12T23:00:20.975Z,47.50
2022-11-12T23:02:48.626Z,47.66
2022-11-12T23:05:16.382Z,47.72
2022-11-12T23:07:44.027Z,47.72
2022-11-12T23:10:11.852Z,47.88
2022-11-12T23:12:40.959Z,47.75
2022-11-12T23:15:09.857Z,47.41
2022-11-12T23:17:37.746Z,47.56
2022-11-12T23:20:06.111Z,47.19
2022-11-12T23:22:34.157Z,47.66
2022-11-12T23:25:02.020Z,47.50
2022-11-12T23:27:29.877Z,47.34
2022-11-12T23:29:58.966Z,47.55
2022-11-12T23:32:26.777Z,47.37
2022-11-12T23:34:54.417Z,47.45
2022-11-12T23:37:22.102Z,47.65
2022-11-12T23:39:50.178Z,47.91
2022-11-12T23:42:18.276Z,48.26
2022-11-12T23:44:46.866Z,47.70
2022-11-12T23:47:16.495Z,47.76
2022-11-12T23:49:44.706Z,48.00
2022-11-12T23:52:13.173Z,48.39
2022-11-12T23:54:41.484Z,48.15
2022-11-12T23:57:09.633Z,48.30
2022-11-12T23:59:37.746Z,48.53
